createdAt,value
2017-09-26T00:01:22.909Z,100896.60
2017-09-26T00:03:50.319Z,100897.63
2017-09-26T00:06:17.718Z,100899.77
2017-09-26T00:08:45.111Z,100896.28
2017-09-26T00:11:12.515Z,100895.98
2017-09-26T00:13:39.914Z,100900.34
2017-09-26T00:16:07.315Z,100895.56
2017-09-26T00:18:34.710Z,100891.36
2017-09-26T00:21:02.107Z,100890.28
2017-09-26T00:23:29.510Z,100893.41
2017-09-26T00:25:56.906Z,100887.41
2017-09-26T00:28:24.316Z,100893.16
2017-09-26T00:30:51.715Z,100894.38
2017-09-26T00:33:19.114Z,100892.23
2017-09-26T00:35:46.523Z,100897.28
2017-09-26T00:38:13.930Z,100901.80
2017-09-26T00:40:41.336Z,100900.47
2017-09-26T00:43:08.731Z,100897.64
2017-09-26T00:45:36.135Z,100900.02
2017-09-26T00:48:03.546Z,100888.22
2017-09-26T00:50:30.952Z,100890.41
2017-09-26T00:52:58.357Z,100889.39
2017-09-26T00:55:25.758Z,100885.28
2017-09-26T00:57:53.154Z,100885.28
2017-09-26T01:00:20.558Z,100890.32
2017-09-26T01:02:47.950Z,100883.20
2017-09-26T01:05:17.298Z,100890.08
2017-09-26T01:07:48.199Z,100884.22
2017-09-26T01:10:15.598Z,100882.02
2017-09-26T01:12:42.994Z,100883.36
2017-09-26T01:15:10.393Z,100883.98
2017-09-26T01:17:37.850Z,100888.00
2017-09-26T01:20:05.246Z,100885.34
2017-09-26T01:22:32.630Z,100882.78
2017-09-26T01:25:00.035Z,100879.06
2017-09-26T01:27:27.436Z,100882.30
2017-09-26T01:29:54.848Z,100881.23
2017-09-26T01:32:22.242Z,100880.11
2017-09-26T01:34:49.634Z,100878.11
2017-09-26T01:37:17.039Z,100880.17
2017-09-26T01:39:44.434Z,100882.23
2017-09-26T01:42:11.835Z,100879.42
2017-09-26T01:44:39.230Z,100880.06
2017-09-26T01:47:06.638Z,100880.42
2017-09-26T01:49:34.047Z,100883.52
2017-09-26T01:52:01.438Z,100878.58
2017-09-26T01:54:28.835Z,100881.98
2017-09-26T01:56:59.594Z,100881.73
2017-09-26T02:02:27.626Z,100877.72
2017-09-26T02:04:55.034Z,100879.27
2017-09-26T02:07:22.430Z,100877.51
2017-09-26T02:09:49.826Z,100879.33
2017-09-26T02:12:17.229Z,100879.42
2017-09-26T02:14:44.622Z,100879.09
2017-09-26T02:17:12.050Z,100878.77
2017-09-26T02:19:39.450Z,100880.47
2017-09-26T02:22:06.849Z,100876.54
2017-09-26T02:24:34.267Z,100876.42
2017-09-26T02:27:01.664Z,100877.53
2017-09-26T02:29:29.076Z,100881.11
2017-09-26T02:31:56.471Z,100878.66
2017-09-26T02:34:23.872Z,100871.63
2017-09-26T02:36:51.274Z,100876.34
2017-09-26T02:39:18.674Z,100870.44
2017-09-26T02:41:46.079Z,100874.31
2017-09-26T02:44:13.475Z,100873.53
2017-09-26T02:46:40.867Z,100873.84
2017-09-26T02:49:08.270Z,100869.36
2017-09-26T02:51:35.666Z,100876.19
2017-09-26T02:54:03.070Z,100873.83
2017-09-26T02:56:30.466Z,100880.06
2017-09-26T02:58:57.861Z,100872.13
2017-09-26T03:01:25.273Z,100869.78
2017-09-26T03:03:52.673Z,100871.69
2017-09-26T03:06:20.094Z,100871.95
2017-09-26T03:08:47.486Z,100879.47
2017-09-26T03:11:14.885Z,100876.48
2017-09-26T03:13:42.287Z,100885.76
2017-09-26T03:16:09.686Z,100887.73
2017-09-26T03:18:37.094Z,100889.13
2017-09-26T03:21:04.487Z,100895.09
2017-09-26T03:23:31.882Z,100888.33
2017-09-26T03:25:59.283Z,100895.88
2017-09-26T03:28:26.682Z,100896.61
2017-09-26T03:30:54.087Z,100891.58
2017-09-26T03:33:21.482Z,100897.72
2017-09-26T03:35:48.894Z,100897.48
2017-09-26T03:38:16.298Z,100898.88
2017-09-26T03:40:43.765Z,100899.38
2017-09-26T03:43:11.167Z,100898.99
2017-09-26T03:45:38.570Z,100901.67
2017-09-26T03:48:05.970Z,100904.91
2017-09-26T03:50:33.365Z,100903.50
2017-09-26T03:53:00.765Z,100904.06
2017-09-26T03:55:28.162Z,100895.95
2017-09-26T03:57:55.570Z,100895.17
2017-09-26T04:00:22.987Z,100898.16
2017-09-26T04:02:50.392Z,100898.77
2017-09-26T04:05:17.791Z,100898.89
2017-09-26T04:07:45.195Z,100896.62
2017-09-26T04:10:12.587Z,100903.33
2017-09-26T04:12:39.995Z,100902.35
2017-09-26T04:15:07.389Z,100899.16
2017-09-26T04:17:34.782Z,100901.05
2017-09-26T04:20:02.209Z,100903.20
2017-09-26T04:22:29.593Z,100903.59
2017-09-26T04:24:57.006Z,100905.29
2017-09-26T04:27:24.406Z,100893.19
2017-09-26T04:29:51.798Z,100895.09
2017-09-26T04:32:19.202Z,100899.09
2017-09-26T04:34:46.603Z,100902.52
2017-09-26T04:37:14.017Z,100901.63
2017-09-26T04:39:41.410Z,100905.70
2017-09-26T04:42:08.806Z,100904.75
2017-09-26T04:44:36.208Z,100903.95
2017-09-26T04:47:03.604Z,100906.62
2017-09-26T04:49:31.006Z,100900.69
2017-09-26T04:51:58.404Z,100902.98
2017-09-26T04:54:25.802Z,100900.73
2017-09-26T04:56:53.210Z,100900.81
2017-09-26T04:59:20.603Z,100899.09
2017-09-26T05:01:48.010Z,100900.78
2017-09-26T05:04:15.406Z,100898.89
2017-09-26T05:06:42.798Z,100899.58
2017-09-26T05:09:10.198Z,100899.71
2017-09-26T05:11:37.594Z,100904.42
2017-09-26T05:14:05.006Z,100909.89
2017-09-26T05:16:32.405Z,100911.56
2017-09-26T05:18:59.800Z,100913.05
2017-09-26T05:21:27.198Z,100911.95
2017-09-26T05:23:54.599Z,100912.36
2017-09-26T05:26:22.006Z,100919.81
2017-09-26T05:28:49.401Z,100912.30
2017-09-26T05:31:16.811Z,100914.45
2017-09-26T05:33:44.211Z,100913.53
2017-09-26T05:36:11.607Z,100915.56
2017-09-26T05:38:39.016Z,100919.88
2017-09-26T05:41:06.412Z,100926.52
2017-09-26T05:43:33.803Z,100924.82
2017-09-26T05:46:01.209Z,100920.86
2017-09-26T05:48:28.603Z,100924.23
2017-09-26T05:50:56.015Z,100920.92
2017-09-26T05:53:23.410Z,100926.62
2017-09-26T05:55:50.807Z,100927.20
2017-09-26T05:58:18.211Z,100927.75
2017-09-26T06:00:45.614Z,100934.34
2017-09-26T06:03:13.032Z,100930.04
2017-09-26T06:05:40.420Z,100934.73
2017-09-26T06:08:07.817Z,100940.41
2017-09-26T06:10:35.236Z,100936.50
2017-09-26T06:13:02.622Z,100942.56
2017-09-26T06:15:30.034Z,100939.91
2017-09-26T06:17:57.435Z,100942.48
2017-09-26T06:20:24.830Z,100944.20
2017-09-26T06:22:52.236Z,100950.83
2017-09-26T06:25:19.629Z,100949.39
2017-09-26T06:27:47.047Z,100952.28
2017-09-26T06:30:14.443Z,100952.98
2017-09-26T06:32:41.850Z,100951.06
2017-09-26T06:35:09.252Z,100956.02
2017-09-26T06:37:36.642Z,100957.39
2017-09-26T06:40:04.051Z,100960.97
2017-09-26T06:42:31.455Z,100962.31
2017-09-26T06:44:58.845Z,100958.74
2017-09-26T06:47:26.246Z,100966.05
2017-09-26T06:49:53.639Z,100963.97
2017-09-26T06:52:21.046Z,100961.64
2017-09-26T06:54:48.443Z,100966.14
2017-09-26T06:57:15.844Z,100965.45
2017-09-26T06:59:43.251Z,100969.80
2017-09-26T07:02:10.642Z,100973.96
2017-09-26T07:04:38.054Z,100972.39
2017-09-26T07:07:05.498Z,100974.29
2017-09-26T07:09:32.876Z,100979.72
2017-09-26T07:12:00.274Z,100975.00
2017-09-26T07:14:27.695Z,100974.45
2017-09-26T07:16:55.090Z,100971.38
2017-09-26T07:19:22.483Z,100980.58
2017-09-26T07:21:49.883Z,100977.91
2017-09-26T07:24:17.278Z,100973.39
2017-09-26T07:26:44.683Z,100976.55
2017-09-26T07:29:12.086Z,100978.55
2017-09-26T07:31:39.482Z,100978.80
2017-09-26T07:34:06.875Z,100982.66
2017-09-26T07:36:34.275Z,100986.91
2017-09-26T07:39:01.676Z,100982.12
2017-09-26T07:41:29.086Z,100983.31
2017-09-26T07:43:56.482Z,100975.67
2017-09-26T07:46:23.873Z,100973.55
2017-09-26T07:48:51.287Z,100973.48
2017-09-26T07:51:18.692Z,100973.10
2017-09-26T07:53:46.095Z,100977.73
2017-09-26T07:56:13.492Z,100976.27
2017-09-26T07:58:40.922Z,100977.38
2017-09-26T08:01:08.510Z,100981.00
2017-09-26T08:03:36.068Z,100978.38
2017-09-26T08:06:03.695Z,100979.58
2017-09-26T08:08:31.287Z,100984.83
2017-09-26T08:10:58.683Z,100986.16
2017-09-26T08:13:26.090Z,100982.10
2017-09-26T08:15:53.483Z,100988.08
2017-09-26T08:18:20.891Z,100991.35
2017-09-26T08:20:48.282Z,100986.30
2017-09-26T08:23:15.684Z,100990.59
2017-09-26T08:25:43.087Z,100991.44
2017-09-26T08:28:10.482Z,100991.38
2017-09-26T08:30:37.919Z,100989.02
2017-09-26T08:33:05.307Z,100989.02
2017-09-26T08:35:32.707Z,100986.02
2017-09-26T08:38:00.106Z,100994.31
2017-09-26T08:40:27.506Z,100989.39
2017-09-26T08:42:54.920Z,100990.81
2017-09-26T08:45:22.315Z,100987.89
2017-09-26T08:47:49.715Z,100984.03
2017-09-26T08:50:17.112Z,100989.95
2017-09-26T08:52:44.516Z,100989.63
2017-09-26T08:55:11.915Z,100986.52
2017-09-26T08:57:39.311Z,100989.13
2017-09-26T09:00:06.712Z,100989.87
2017-09-26T09:02:34.110Z,100987.39
2017-09-26T09:05:01.508Z,100994.23
2017-09-26T09:07:28.928Z,100988.25
2017-09-26T09:09:56.331Z,100993.50
2017-09-26T09:12:23.726Z,100985.28
2017-09-26T09:14:51.133Z,100989.47
2017-09-26T09:17:18.530Z,100982.10
2017-09-26T09:19:45.938Z,100986.76
2017-09-26T09:22:13.343Z,100991.29
2017-09-26T09:24:41.003Z,100987.25
2017-09-26T09:27:08.407Z,100989.63
2017-09-26T09:29:35.821Z,100984.02
2017-09-26T09:32:03.215Z,100988.33
2017-09-26T09:34:30.610Z,100982.80
2017-09-26T09:36:58.014Z,100991.44
2017-09-26T09:39:25.422Z,100985.34
2017-09-26T09:41:52.814Z,100991.55
2017-09-26T09:44:20.222Z,100985.52
2017-09-26T09:46:47.613Z,100983.27
2017-09-26T09:49:15.012Z,100995.18
2017-09-26T09:51:42.409Z,100989.98
2017-09-26T09:54:09.810Z,100990.70
2017-09-26T09:56:37.216Z,100993.41
2017-09-26T09:59:04.610Z,100996.10
2017-09-26T10:01:32.006Z,100995.64
2017-09-26T10:03:59.414Z,100997.06
2017-09-26T10:06:26.806Z,101000.83
2017-09-26T10:08:54.220Z,101003.59
2017-09-26T10:11:21.610Z,101002.38
2017-09-26T10:13:49.007Z,100998.66
2017-09-26T10:16:16.402Z,100998.45
2017-09-26T10:18:43.808Z,101000.17
2017-09-26T10:21:11.198Z,101002.78
2017-09-26T10:23:38.612Z,101005.53
2017-09-26T10:26:06.051Z,101001.75
2017-09-26T10:28:33.459Z,100999.97
2017-09-26T10:31:00.859Z,100999.30
2017-09-26T10:33:28.262Z,100994.23
2017-09-26T10:35:55.662Z,100997.62
2017-09-26T10:38:23.058Z,100992.93
2017-09-26T10:40:50.518Z,100992.63
2017-09-26T10:43:17.898Z,100991.69
2017-09-26T10:45:45.307Z,100999.22
2017-09-26T10:48:12.711Z,100990.25
2017-09-26T10:50:40.110Z,100995.31
2017-09-26T10:53:07.507Z,100997.45
2017-09-26T10:55:34.914Z,101000.88
2017-09-26T10:58:02.318Z,100994.67
2017-09-26T11:00:29.718Z,100993.98
2017-09-26T11:02:57.131Z,100991.56
2017-09-26T11:05:24.558Z,100996.24
2017-09-26T11:07:51.955Z,101000.01
2017-09-26T11:10:19.434Z,100994.94
2017-09-26T11:12:46.818Z,100996.38
2017-09-26T11:15:14.215Z,100994.80
2017-09-26T11:17:41.669Z,100997.96
2017-09-26T11:20:09.047Z,100995.22
2017-09-26T11:22:36.451Z,100988.14
2017-09-26T11:25:03.850Z,100995.58
2017-09-26T11:27:31.246Z,100989.42
2017-09-26T11:29:58.660Z,100997.73
2017-09-26T11:32:26.073Z,100999.30
2017-09-26T11:34:53.453Z,100999.00
2017-09-26T11:37:20.860Z,100998.59
2017-09-26T11:39:48.257Z,101000.34
2017-09-26T11:42:15.687Z,100997.06
2017-09-26T11:44:43.094Z,100999.94
2017-09-26T11:47:10.498Z,100996.75
2017-09-26T11:49:37.894Z,100999.39
2017-09-26T11:52:05.312Z,100999.87
2017-09-26T11:54:32.714Z,100992.38
2017-09-26T11:57:00.115Z,100989.34
2017-09-26T11:59:27.512Z,100993.63
2017-09-26T12:01:54.914Z,100992.13
2017-09-26T12:04:22.306Z,100984.84
2017-09-26T12:06:49.723Z,100976.14
2017-09-26T12:09:17.126Z,100973.66
2017-09-26T12:11:44.538Z,100975.80
2017-09-26T12:14:11.951Z,100978.85
2017-09-26T12:16:39.350Z,100976.09
2017-09-26T12:19:06.761Z,100977.55
2017-09-26T12:21:34.165Z,100975.45
2017-09-26T12:24:01.557Z,100975.04
2017-09-26T12:26:28.963Z,100979.20
2017-09-26T12:28:56.362Z,100970.91
2017-09-26T12:31:23.775Z,100965.56
2017-09-26T12:33:51.174Z,100971.03
2017-09-26T12:36:18.655Z,100962.23
2017-09-26T12:38:46.097Z,100966.91
2017-09-26T12:41:13.499Z,100963.17
2017-09-26T12:43:41.002Z,100962.34
2017-09-26T12:46:08.403Z,100959.11
2017-09-26T12:48:36.135Z,100957.03
2017-09-26T12:51:04.238Z,100960.90
2017-09-26T12:53:31.639Z,100960.09
2017-09-26T12:55:59.065Z,100953.39
2017-09-26T12:58:26.463Z,100955.59
2017-09-26T13:00:53.892Z,100959.09
2017-09-26T13:03:21.304Z,100956.75
2017-09-26T13:05:49.522Z,100959.82
2017-09-26T13:08:17.114Z,100970.20
2017-09-26T13:10:44.518Z,100969.18
2017-09-26T13:13:11.974Z,100974.56
2017-09-26T13:15:39.383Z,100974.52
2017-09-26T13:18:06.784Z,100976.23
2017-09-26T13:20:34.195Z,100981.47
2017-09-26T13:23:01.598Z,100975.97
2017-09-26T13:25:34.191Z,100971.71
2017-09-26T13:28:01.735Z,100972.02
2017-09-26T13:30:29.184Z,100968.60
2017-09-26T13:32:56.590Z,100970.98
2017-09-26T13:35:24.070Z,100970.58
2017-09-26T13:37:51.672Z,100972.98
2017-09-26T13:40:19.055Z,100966.81
2017-09-26T13:42:46.453Z,100968.22
2017-09-26T13:45:13.859Z,100965.55
2017-09-26T13:47:41.262Z,100961.81
2017-09-26T13:50:08.687Z,100966.30
2017-09-26T13:52:36.083Z,100965.10
2017-09-26T13:55:03.490Z,100961.55
2017-09-26T13:57:30.890Z,100966.45
2017-09-26T13:59:58.278Z,100968.42
2017-09-26T14:02:25.686Z,100970.72
2017-09-26T14:04:53.082Z,100969.27
2017-09-26T14:07:20.487Z,100970.08
2017-09-26T14:09:47.880Z,100964.82
2017-09-26T14:12:15.282Z,100973.52
2017-09-26T14:14:42.687Z,100963.38
2017-09-26T14:17:10.089Z,100961.67
2017-09-26T14:19:37.485Z,100964.24
2017-09-26T14:22:04.878Z,100957.34
2017-09-26T14:24:32.315Z,100954.19
2017-09-26T14:26:59.710Z,100956.66
2017-09-26T14:29:27.120Z,100969.17
2017-09-26T14:31:54.520Z,100957.74
2017-09-26T14:34:21.910Z,100949.45
2017-09-26T14:36:49.314Z,100959.39
2017-09-26T14:39:16.709Z,100959.70
2017-09-26T14:41:44.119Z,100953.94
2017-09-26T14:44:11.531Z,100954.64
2017-09-26T14:46:38.939Z,100955.80
2017-09-26T14:49:06.334Z,100954.53
2017-09-26T14:51:33.730Z,100952.95
2017-09-26T14:54:01.132Z,100958.69
2017-09-26T14:56:28.556Z,100958.19
2017-09-26T14:58:55.947Z,100959.40
2017-09-26T15:01:24.450Z,100958.11
2017-09-26T15:03:51.859Z,100966.97
2017-09-26T15:06:19.358Z,100967.12
2017-09-26T15:08:46.754Z,100966.08
2017-09-26T15:11:14.171Z,100971.04
2017-09-26T15:13:41.567Z,100968.93
2017-09-26T15:16:08.970Z,100977.11
2017-09-26T15:18:36.370Z,100978.93
2017-09-26T15:21:08.216Z,100990.73
2017-09-26T15:23:35.605Z,100986.09
2017-09-26T15:26:03.019Z,100987.03
2017-09-26T15:28:30.422Z,100987.19
2017-09-26T15:30:58.742Z,100990.17
2017-09-26T15:33:26.148Z,100991.45
2017-09-26T15:35:54.119Z,100984.34
2017-09-26T15:38:21.526Z,100993.13
2017-09-26T15:40:48.919Z,100989.23
2017-09-26T15:43:16.315Z,100992.80
2017-09-26T15:45:43.716Z,100985.85
2017-09-26T15:48:11.114Z,100994.42
2017-09-26T15:50:38.518Z,100985.30
2017-09-26T15:53:05.919Z,100983.34
2017-09-26T15:55:33.327Z,100983.49
2017-09-26T15:58:00.977Z,100983.70
2017-09-26T16:00:28.999Z,100985.83
2017-09-26T16:02:57.284Z,100976.03
2017-09-26T16:05:25.694Z,100985.68
2017-09-26T16:07:53.175Z,100984.17
2017-09-26T16:10:20.622Z,100987.67
2017-09-26T16:12:48.030Z,100984.78
2017-09-26T16:15:17.170Z,100988.73
2017-09-26T16:17:45.338Z,100985.05
2017-09-26T16:20:12.760Z,100991.11
2017-09-26T16:22:40.154Z,100991.34
2017-09-26T16:25:08.473Z,100987.39
2017-09-26T16:27:37.613Z,100987.71
2017-09-26T16:30:05.027Z,100986.97
2017-09-26T16:32:33.069Z,100982.87
2017-09-26T16:35:00.522Z,100981.34
2017-09-26T16:37:27.922Z,100980.48
2017-09-26T16:39:55.322Z,100981.59
2017-09-26T16:42:22.723Z,100980.20
2017-09-26T16:44:50.118Z,100985.72
2017-09-26T16:47:17.526Z,100992.80
2017-09-26T16:49:44.923Z,100992.45
2017-09-26T16:52:12.320Z,100993.33
2017-09-26T16:54:39.722Z,100993.04
2017-09-26T16:57:07.122Z,100994.42
2017-09-26T16:59:34.519Z,100994.52
2017-09-26T17:02:01.920Z,100999.55
2017-09-26T17:04:29.322Z,101003.09
2017-09-26T17:06:56.719Z,101002.83
2017-09-26T17:09:24.116Z,101014.05
2017-09-26T17:11:51.518Z,101020.83
2017-09-26T17:14:18.915Z,101021.09
2017-09-26T17:16:46.319Z,101022.94
2017-09-26T17:19:13.713Z,101024.70
2017-09-26T17:21:43.054Z,101030.58
2017-09-26T17:24:10.458Z,101030.21
2017-09-26T17:26:37.962Z,101032.50
2017-09-26T17:29:05.383Z,101032.58
2017-09-26T17:31:32.775Z,101030.19
2017-09-26T17:34:00.174Z,101039.56
2017-09-26T17:36:27.576Z,101045.81
2017-09-26T17:38:54.983Z,101052.62
2017-09-26T17:41:22.383Z,101062.62
2017-09-26T17:43:49.783Z,101051.20
2017-09-26T17:46:17.187Z,101053.27
2017-09-26T17:48:44.578Z,101052.22
2017-09-26T17:51:11.987Z,101055.92
2017-09-26T17:53:39.378Z,101057.55
2017-09-26T17:56:06.786Z,101058.98
2017-09-26T17:58:34.188Z,101068.77
2017-09-26T18:01:01.603Z,101072.27
2017-09-26T18:03:29.007Z,101080.17
2017-09-26T18:06:02.367Z,101077.02
2017-09-26T18:08:29.767Z,101078.21
2017-09-26T18:10:57.172Z,101081.08
2017-09-26T18:13:24.574Z,101084.03
2017-09-26T18:15:51.978Z,101081.31
2017-09-26T18:18:19.386Z,101079.72
2017-09-26T18:20:46.786Z,101088.65
2017-09-26T18:23:20.294Z,101085.65
2017-09-26T18:25:47.716Z,101092.41
2017-09-26T18:28:15.106Z,101095.60
2017-09-26T18:30:42.810Z,101097.84
2017-09-26T18:33:10.206Z,101098.39
2017-09-26T18:35:37.613Z,101100.96
2017-09-26T18:38:05.014Z,101106.22
2017-09-26T18:40:32.415Z,101112.25
2017-09-26T18:42:59.814Z,101110.34
2017-09-26T18:45:27.218Z,101110.09
2017-09-26T18:47:54.615Z,101115.62
2017-09-26T18:50:22.023Z,101114.03
2017-09-26T18:52:49.414Z,101112.44
2017-09-26T18:55:16.883Z,101116.49
2017-09-26T18:57:44.310Z,101118.92
2017-09-26T19:00:12.272Z,101113.52
2017-09-26T19:02:39.684Z,101115.27
2017-09-26T19:05:07.092Z,101112.80
2017-09-26T19:07:34.500Z,101118.77
2017-09-26T19:10:01.903Z,101121.75
2017-09-26T19:12:29.321Z,101119.77
2017-09-26T19:14:56.721Z,101119.36
2017-09-26T19:17:24.133Z,101118.45
2017-09-26T19:19:51.547Z,101115.70
2017-09-26T19:22:18.958Z,101112.32
2017-09-26T19:24:46.367Z,101110.23
2017-09-26T19:27:13.771Z,101109.79
2017-09-26T19:29:41.166Z,101106.06
2017-09-26T19:32:08.596Z,101106.20
2017-09-26T19:34:35.987Z,101106.80
2017-09-26T19:37:03.381Z,101104.06
2017-09-26T19:39:30.787Z,101103.52
2017-09-26T19:41:58.183Z,101105.52
2017-09-26T19:44:25.582Z,101101.48
2017-09-26T19:46:52.988Z,101103.87
2017-09-26T19:49:20.391Z,101100.16
2017-09-26T19:51:47.805Z,101101.04
2017-09-26T19:54:15.186Z,101095.94
2017-09-26T19:56:42.594Z,101097.28
2017-09-26T19:59:09.994Z,101088.41
2017-09-26T20:01:37.396Z,101093.03
2017-09-26T20:04:11.267Z,101088.25
2017-09-26T20:06:38.671Z,101084.94
2017-09-26T20:09:06.067Z,101088.45
2017-09-26T20:11:33.478Z,101087.95
2017-09-26T20:14:00.870Z,101095.02
2017-09-26T20:16:28.263Z,101089.29
2017-09-26T20:18:55.695Z,101084.44
2017-09-26T20:21:23.054Z,101089.60
2017-09-26T20:23:50.449Z,101089.58
2017-09-26T20:26:17.847Z,101086.59
2017-09-26T20:28:45.250Z,101087.38
2017-09-26T20:31:12.647Z,101099.14
2017-09-26T20:33:40.051Z,101092.56
2017-09-26T20:36:07.446Z,101096.59
2017-09-26T20:38:34.844Z,101100.02
2017-09-26T20:41:02.252Z,101100.22
2017-09-26T20:43:29.695Z,101105.59
2017-09-26T20:45:57.095Z,101102.42
2017-09-26T20:48:24.490Z,101106.03
2017-09-26T20:50:51.899Z,101107.07
2017-09-26T20:53:19.290Z,101108.11
2017-09-26T20:55:46.699Z,101112.45
2017-09-26T20:58:14.102Z,101109.05
2017-09-26T21:00:41.509Z,101109.86
2017-09-26T21:03:08.905Z,101107.49
2017-09-26T21:05:36.303Z,101105.44
2017-09-26T21:08:03.702Z,101108.42
2017-09-26T21:10:31.110Z,101111.95
2017-09-26T21:12:58.512Z,101114.52
2017-09-26T21:15:25.907Z,101117.20
2017-09-26T21:17:53.310Z,101119.98
2017-09-26T21:20:20.704Z,101114.83
2017-09-26T21:22:48.101Z,101117.42
2017-09-26T21:25:15.502Z,101118.03
2017-09-26T21:27:42.903Z,101116.58
2017-09-26T21:30:10.306Z,101120.60
2017-09-26T21:32:37.703Z,101118.77
2017-09-26T21:35:05.103Z,101116.47
2017-09-26T21:37:32.507Z,101126.19
2017-09-26T21:39:59.915Z,101122.36
2017-09-26T21:42:27.311Z,101125.34
2017-09-26T21:44:54.708Z,101123.69
2017-09-26T21:47:22.111Z,101128.20
2017-09-26T21:49:49.503Z,101129.03
2017-09-26T21:52:16.902Z,101125.13
2017-09-26T21:54:44.297Z,101127.72
2017-09-26T21:57:11.703Z,101126.55
2017-09-26T21:59:39.128Z,101131.41
2017-09-26T22:02:06.494Z,101135.32
2017-09-26T22:04:33.898Z,101132.13
2017-09-26T22:07:01.293Z,101128.83
2017-09-26T22:09:28.699Z,101127.28
2017-09-26T22:11:56.102Z,101124.47
2017-09-26T22:14:23.506Z,101121.25
2017-09-26T22:16:50.898Z,101125.98
2017-09-26T22:19:18.302Z,101119.39
2017-09-26T22:21:45.698Z,101123.30
2017-09-26T22:24:13.097Z,101120.20
2017-09-26T22:26:40.494Z,101117.73
2017-09-26T22:29:07.887Z,101120.41
2017-09-26T22:31:35.282Z,101119.05
2017-09-26T22:34:02.686Z,101116.14
2017-09-26T22:36:30.082Z,101123.15
2017-09-26T22:38:57.492Z,101118.32
2017-09-26T22:41:24.890Z,101111.00
2017-09-26T22:43:52.287Z,101112.72
2017-09-26T22:46:19.691Z,101110.02
2017-09-26T22:48:47.099Z,101103.85
2017-09-26T22:51:14.498Z,101105.70
2017-09-26T22:53:41.899Z,101108.21
2017-09-26T22:56:09.298Z,101099.56
2017-09-26T22:58:36.703Z,101103.99
2017-09-26T23:01:04.094Z,101094.59
2017-09-26T23:03:31.506Z,101095.21
2017-09-26T23:05:58.902Z,101093.65
2017-09-26T23:08:26.305Z,101083.05
2017-09-26T23:10:53.698Z,101092.74
2017-09-26T23:13:21.091Z,101087.05
2017-09-26T23:15:48.490Z,101088.08
2017-09-26T23:18:15.892Z,101083.63
2017-09-26T23:20:43.291Z,101087.35
2017-09-26T23:23:10.682Z,101090.66
2017-09-26T23:25:38.087Z,101087.78
2017-09-26T23:28:05.478Z,101084.80
2017-09-26T23:30:32.874Z,101083.58
2017-09-26T23:33:00.280Z,101086.66
2017-09-26T23:35:27.672Z,101078.63
2017-09-26T23:37:55.070Z,101089.58
2017-09-26T23:40:22.462Z,101086.68
2017-09-26T23:42:49.863Z,101091.13
2017-09-26T23:45:17.253Z,101089.92
2017-09-26T23:47:44.671Z,101097.36
2017-09-26T23:50:12.065Z,101083.88
2017-09-26T23:52:39.466Z,101091.42
2017-09-26T23:55:06.870Z,101095.22
2017-09-26T23:57:34.271Z,101090.81
